WIZ985 EHRD-EGCC
Flight info
| Callsign | WIZ985 |
|---|---|
| Flight time | 0h 51m |
| Altitude | 36000 |
| Route | SOMEL2A ABNED L980 LAM UN57 WELIN T420 TNT DCT |
| Aircraft | A321/H-SDE1FGHILORVWXY/L |
Departure
| Time | 2026-05-07 14:49 |
|---|---|
| Airport | Rotterdam The Hague Airport (EHRD) |
Arrival
| Time | 2026-05-07 15:41 |
|---|---|
| Airport | Manchester Airport (EGCC) |
| Time | Latitude | Longitude | Altitude | Speed | Heading |
|---|---|---|---|---|---|
| 2026-05-07 14:22 | 51.94939 | 4.43583 | 1 ft | 0 kts | 326° |
| 2026-05-07 14:31 | 51.94938 | 4.43583 | 1 ft | 0 kts | 326° |
| 2026-05-07 14:45 | 51.94948 | 4.43576 | 1 ft | 4 kts | 334° |
| 2026-05-07 14:45 | 51.94981 | 4.43584 | 1 ft | 7 kts | 32° |
| 2026-05-07 14:45 | 51.95014 | 4.43638 | 1 ft | 6 kts | 34° |
| 2026-05-07 14:45 | 51.95066 | 4.43620 | 1 ft | 10 kts | 330° |
| 2026-05-07 14:46 | 51.95133 | 4.43550 | 1 ft | 13 kts | 327° |
| 2026-05-07 14:46 | 51.95213 | 4.43467 | 1 ft | 8 kts | 329° |
| 2026-05-07 14:46 | 51.95237 | 4.43410 | 1 ft | 7 kts | 272° |
| 2026-05-07 14:46 | 51.95212 | 4.43325 | 1 ft | 11 kts | 237° |
| 2026-05-07 14:47 | 51.95172 | 4.43223 | 1 ft | 5 kts | 237° |
| 2026-05-07 14:47 | 51.95148 | 4.43152 | 1 ft | 9 kts | 243° |
| 2026-05-07 14:47 | 51.95116 | 4.43041 | 1 ft | 10 kts | 246° |
| 2026-05-07 14:47 | 51.95136 | 4.42926 | 2 ft | 13 kts | 319° |
| 2026-05-07 14:48 | 51.95204 | 4.42862 | 2 ft | 9 kts | 353° |
| 2026-05-07 14:48 | 51.95235 | 4.42888 | 3 ft | 1 kts | 58° |
| 2026-05-07 14:48 | 51.95258 | 4.42943 | 2 ft | 28 kts | 56° |
| 2026-05-07 14:48 | 51.95508 | 4.43556 | -1 ft | 102 kts | 57° |
| 2026-05-07 14:49 | 51.96011 | 4.44798 | 23 ft | 157 kts | 55° |
| 2026-05-07 14:49 | 51.96622 | 4.46317 | 551 ft | 162 kts | 54° |
| 2026-05-07 14:49 | 51.97240 | 4.47848 | 1180 ft | 163 kts | 53° |
| 2026-05-07 14:49 | 51.97836 | 4.49408 | 1827 ft | 164 kts | 58° |
| 2026-05-07 14:50 | 51.98563 | 4.50922 | 2097 ft | 180 kts | 40° |
| 2026-05-07 14:50 | 51.99723 | 4.51887 | 2241 ft | 198 kts | 14° |
| 2026-05-07 14:50 | 52.01143 | 4.51856 | 2356 ft | 217 kts | 346° |
| 2026-05-07 14:50 | 52.02484 | 4.50532 | 2770 ft | 235 kts | 312° |
| 2026-05-07 14:51 | 52.03245 | 4.48213 | 3645 ft | 236 kts | 282° |
| 2026-05-07 14:51 | 52.03171 | 4.45575 | 4458 ft | 237 kts | 249° |
| 2026-05-07 14:51 | 52.02256 | 4.43387 | 5282 ft | 237 kts | 218° |
| 2026-05-07 14:51 | 52.00967 | 4.41779 | 6159 ft | 237 kts | 216° |
| 2026-05-07 14:52 | 51.99643 | 4.40163 | 6962 ft | 239 kts | 215° |
| 2026-05-07 14:52 | 51.98302 | 4.38504 | 7608 ft | 248 kts | 216° |
| 2026-05-07 14:52 | 51.96948 | 4.36701 | 8240 ft | 257 kts | 229° |
| 2026-05-07 14:52 | 51.96101 | 4.34104 | 8763 ft | 274 kts | 253° |
| 2026-05-07 14:53 | 51.95936 | 4.30910 | 9145 ft | 292 kts | 268° |
| 2026-05-07 14:53 | 51.95848 | 4.27643 | 10068 ft | 288 kts | 263° |
| 2026-05-07 14:53 | 51.95601 | 4.24345 | 10519 ft | 305 kts | 261° |
| 2026-05-07 14:53 | 51.95256 | 4.20833 | 10725 ft | 326 kts | 259° |
| 2026-05-07 14:54 | 51.94872 | 4.17152 | 11223 ft | 335 kts | 259° |
| 2026-05-07 14:54 | 51.94617 | 4.14667 | 11674 ft | 338 kts | 259° |
| 2026-05-07 14:54 | 51.94133 | 4.09658 | 12625 ft | 342 kts | 261° |
| 2026-05-07 14:54 | 51.93778 | 4.05830 | 13352 ft | 344 kts | 261° |
| 2026-05-07 14:55 | 51.93411 | 4.01977 | 14000 ft | 349 kts | 261° |
| 2026-05-07 14:55 | 51.93033 | 3.98076 | 14615 ft | 352 kts | 261° |
| 2026-05-07 14:55 | 51.92651 | 3.94133 | 15234 ft | 356 kts | 261° |
| 2026-05-07 14:55 | 51.92264 | 3.90160 | 15892 ft | 358 kts | 261° |
| 2026-05-07 14:56 | 51.92005 | 3.87524 | 16379 ft | 358 kts | 261° |
| 2026-05-07 14:56 | 51.91612 | 3.83519 | 17011 ft | 362 kts | 261° |
| 2026-05-07 14:56 | 51.91217 | 3.79484 | 17646 ft | 365 kts | 261° |
| 2026-05-07 14:56 | 51.90816 | 3.75406 | 18256 ft | 369 kts | 261° |
| 2026-05-07 14:57 | 51.90409 | 3.71302 | 18841 ft | 371 kts | 261° |
| 2026-05-07 14:57 | 51.89999 | 3.67178 | 19458 ft | 371 kts | 260° |
| 2026-05-07 14:57 | 51.89449 | 3.61672 | 20157 ft | 376 kts | 260° |
| 2026-05-07 14:57 | 51.89165 | 3.58840 | 20494 ft | 379 kts | 260° |
| 2026-05-07 14:58 | 51.88740 | 3.54610 | 21059 ft | 382 kts | 260° |
| 2026-05-07 14:58 | 51.88319 | 3.50408 | 21616 ft | 384 kts | 260° |
| 2026-05-07 14:58 | 51.87890 | 3.46126 | 22188 ft | 387 kts | 260° |
| 2026-05-07 14:58 | 51.87453 | 3.41811 | 22696 ft | 390 kts | 260° |
| 2026-05-07 14:59 | 51.87008 | 3.37456 | 23167 ft | 394 kts | 260° |
| 2026-05-07 14:59 | 51.86558 | 3.33064 | 23667 ft | 397 kts | 260° |
| 2026-05-07 14:59 | 51.86104 | 3.28643 | 24006 ft | 400 kts | 260° |
| 2026-05-07 14:59 | 51.85644 | 3.24206 | 24153 ft | 401 kts | 260° |
| 2026-05-07 15:00 | 51.85180 | 3.19745 | 24581 ft | 403 kts | 260° |
| 2026-05-07 15:00 | 51.84974 | 3.15224 | 25009 ft | 406 kts | 274° |
| 2026-05-07 15:00 | 51.85568 | 3.10766 | 25410 ft | 410 kts | 290° |
| 2026-05-07 15:00 | 51.86695 | 3.06583 | 25807 ft | 412 kts | 293° |
| 2026-05-07 15:01 | 51.87878 | 3.02345 | 26212 ft | 415 kts | 293° |
| 2026-05-07 15:01 | 51.89074 | 2.98078 | 26602 ft | 417 kts | 293° |
| 2026-05-07 15:01 | 51.90272 | 2.93787 | 26990 ft | 420 kts | 293° |
| 2026-05-07 15:01 | 51.91474 | 2.89463 | 27372 ft | 422 kts | 293° |
| 2026-05-07 15:02 | 51.92681 | 2.85111 | 27741 ft | 425 kts | 293° |
| 2026-05-07 15:02 | 51.93890 | 2.80731 | 28116 ft | 427 kts | 292° |
| 2026-05-07 15:02 | 51.95101 | 2.76319 | 28491 ft | 430 kts | 292° |
| 2026-05-07 15:02 | 51.96316 | 2.71871 | 28856 ft | 432 kts | 292° |
| 2026-05-07 15:03 | 51.97436 | 2.67758 | 29184 ft | 435 kts | 292° |
| 2026-05-07 15:03 | 51.98660 | 2.63264 | 29532 ft | 437 kts | 292° |
| 2026-05-07 15:03 | 51.99890 | 2.58745 | 29890 ft | 439 kts | 292° |
| 2026-05-07 15:03 | 52.01127 | 2.54194 | 30218 ft | 442 kts | 292° |
| 2026-05-07 15:04 | 52.02370 | 2.49620 | 30490 ft | 445 kts | 292° |
| 2026-05-07 15:04 | 52.03623 | 2.44989 | 30670 ft | 450 kts | 292° |
| 2026-05-07 15:04 | 52.04883 | 2.40318 | 30889 ft | 454 kts | 293° |
| 2026-05-07 15:04 | 52.06151 | 2.35604 | 31202 ft | 455 kts | 292° |
| 2026-05-07 15:05 | 52.07400 | 2.30965 | 31598 ft | 454 kts | 292° |
| 2026-05-07 15:05 | 52.08665 | 2.26267 | 32008 ft | 453 kts | 293° |
| 2026-05-07 15:05 | 52.09926 | 2.21571 | 32431 ft | 452 kts | 293° |
| 2026-05-07 15:05 | 52.11183 | 2.16888 | 32836 ft | 451 kts | 292° |
| 2026-05-07 15:06 | 52.12434 | 2.12213 | 33231 ft | 450 kts | 292° |
| 2026-05-07 15:06 | 52.13678 | 2.07543 | 33617 ft | 450 kts | 292° |
| 2026-05-07 15:06 | 52.14917 | 2.02878 | 34003 ft | 449 kts | 292° |
| 2026-05-07 15:06 | 52.16154 | 1.98217 | 34336 ft | 448 kts | 292° |
| 2026-05-07 15:07 | 52.17388 | 1.93550 | 34630 ft | 448 kts | 292° |
| 2026-05-07 15:07 | 52.18601 | 1.88942 | 34897 ft | 449 kts | 292° |
| 2026-05-07 15:07 | 52.19828 | 1.84270 | 35181 ft | 449 kts | 292° |
| 2026-05-07 15:07 | 52.21055 | 1.79596 | 35472 ft | 448 kts | 292° |
| 2026-05-07 15:08 | 52.22283 | 1.74923 | 35759 ft | 448 kts | 292° |
| 2026-05-07 15:08 | 52.23508 | 1.70256 | 36024 ft | 448 kts | 291° |
| 2026-05-07 15:08 | 52.25948 | 1.60921 | 36105 ft | 446 kts | 291° |
| 2026-05-07 15:09 | 52.28348 | 1.51678 | 36099 ft | 446 kts | 291° |
| 2026-05-07 15:09 | 52.30777 | 1.42323 | 36103 ft | 448 kts | 291° |
| 2026-05-07 15:10 | 52.33206 | 1.32923 | 36092 ft | 449 kts | 291° |
| 2026-05-07 15:10 | 52.35629 | 1.23511 | 36092 ft | 449 kts | 291° |
| 2026-05-07 15:11 | 52.38018 | 1.14139 | 36093 ft | 449 kts | 291° |
| 2026-05-07 15:11 | 52.40420 | 1.04702 | 36100 ft | 449 kts | 291° |
| 2026-05-07 15:12 | 52.42824 | 0.95246 | 36110 ft | 450 kts | 291° |
| 2026-05-07 15:12 | 52.45223 | 0.85775 | 36099 ft | 450 kts | 291° |
| 2026-05-07 15:13 | 52.47614 | 0.76300 | 36096 ft | 450 kts | 291° |
| 2026-05-07 15:13 | 52.49977 | 0.66869 | 36101 ft | 450 kts | 291° |
| 2026-05-07 15:14 | 52.52339 | 0.57367 | 36101 ft | 450 kts | 291° |
| 2026-05-07 15:14 | 52.54702 | 0.47845 | 35983 ft | 451 kts | 291° |
| 2026-05-07 15:15 | 52.55887 | 0.43065 | 35718 ft | 451 kts | 291° |
| 2026-05-07 15:15 | 52.57055 | 0.38349 | 35141 ft | 453 kts | 291° |
| 2026-05-07 15:15 | 52.58240 | 0.33548 | 34540 ft | 454 kts | 291° |
| 2026-05-07 15:15 | 52.59419 | 0.28745 | 34029 ft | 453 kts | 291° |
| 2026-05-07 15:16 | 52.60593 | 0.23953 | 33488 ft | 450 kts | 291° |
| 2026-05-07 15:16 | 52.61884 | 0.19299 | 33054 ft | 445 kts | 301° |
| 2026-05-07 15:16 | 52.63577 | 0.15065 | 32557 ft | 441 kts | 303° |
| 2026-05-07 15:16 | 52.65291 | 0.10898 | 32061 ft | 438 kts | 304° |
| 2026-05-07 15:17 | 52.66997 | 0.06761 | 31551 ft | 435 kts | 304° |
| 2026-05-07 15:17 | 52.68692 | 0.02645 | 31064 ft | 432 kts | 304° |
| 2026-05-07 15:17 | 52.70353 | -0.01392 | 30573 ft | 430 kts | 303° |
| 2026-05-07 15:17 | 52.72027 | -0.05468 | 30072 ft | 428 kts | 303° |
| 2026-05-07 15:18 | 52.73685 | -0.09514 | 29558 ft | 424 kts | 303° |
| 2026-05-07 15:18 | 52.75325 | -0.13528 | 29084 ft | 419 kts | 303° |
| 2026-05-07 15:18 | 52.76942 | -0.17497 | 28613 ft | 415 kts | 303° |
| 2026-05-07 15:18 | 52.78549 | -0.21443 | 28148 ft | 412 kts | 303° |
| 2026-05-07 15:19 | 52.80138 | -0.25348 | 27704 ft | 408 kts | 303° |
| 2026-05-07 15:19 | 52.81692 | -0.29177 | 27266 ft | 405 kts | 303° |
| 2026-05-07 15:19 | 52.83281 | -0.33105 | 26841 ft | 423 kts | 303° |
| 2026-05-07 15:19 | 52.84952 | -0.37249 | 26366 ft | 439 kts | 302° |
| 2026-05-07 15:20 | 52.86653 | -0.41468 | 25901 ft | 440 kts | 302° |
| 2026-05-07 15:20 | 52.88349 | -0.45672 | 25441 ft | 438 kts | 302° |
| 2026-05-07 15:20 | 52.90041 | -0.49866 | 24986 ft | 444 kts | 302° |
| 2026-05-07 15:20 | 52.91774 | -0.54165 | 24504 ft | 452 kts | 302° |
| 2026-05-07 15:21 | 52.93517 | -0.58493 | 24018 ft | 451 kts | 302° |
| 2026-05-07 15:21 | 52.95226 | -0.62743 | 23509 ft | 447 kts | 302° |
| 2026-05-07 15:21 | 52.96944 | -0.67025 | 22979 ft | 443 kts | 302° |
| 2026-05-07 15:21 | 52.98640 | -0.71273 | 22474 ft | 440 kts | 302° |
| 2026-05-07 15:22 | 53.00321 | -0.75499 | 21955 ft | 437 kts | 302° |
| 2026-05-07 15:22 | 53.01983 | -0.79689 | 21459 ft | 433 kts | 302° |
| 2026-05-07 15:22 | 53.03624 | -0.83821 | 21141 ft | 420 kts | 302° |
| 2026-05-07 15:22 | 53.05214 | -0.87824 | 20537 ft | 416 kts | 302° |
| 2026-05-07 15:23 | 53.06811 | -0.91859 | 19619 ft | 419 kts | 301° |
| 2026-05-07 15:23 | 53.08396 | -0.95875 | 18734 ft | 422 kts | 301° |
| 2026-05-07 15:23 | 53.10009 | -0.99964 | 17757 ft | 424 kts | 301° |
| 2026-05-07 15:23 | 53.11624 | -1.04061 | 16768 ft | 424 kts | 301° |
| 2026-05-07 15:24 | 53.13212 | -1.08090 | 15785 ft | 405 kts | 301° |
| 2026-05-07 15:24 | 53.14721 | -1.11925 | 14753 ft | 389 kts | 301° |
| 2026-05-07 15:24 | 53.16184 | -1.15654 | 13571 ft | 380 kts | 301° |
| 2026-05-07 15:24 | 53.17610 | -1.19293 | 12343 ft | 370 kts | 301° |
| 2026-05-07 15:25 | 53.18996 | -1.22839 | 11200 ft | 361 kts | 301° |
| 2026-05-07 15:25 | 53.20330 | -1.26252 | 10654 ft | 337 kts | 301° |
| 2026-05-07 15:25 | 53.21539 | -1.29341 | 10415 ft | 313 kts | 300° |
| 2026-05-07 15:25 | 53.22723 | -1.32381 | 10212 ft | 308 kts | 300° |
| 2026-05-07 15:26 | 53.23881 | -1.35370 | 9827 ft | 304 kts | 300° |
| 2026-05-07 15:26 | 53.25027 | -1.38326 | 9406 ft | 302 kts | 300° |
| 2026-05-07 15:26 | 53.26166 | -1.41262 | 8976 ft | 301 kts | 300° |
| 2026-05-07 15:26 | 53.27302 | -1.44188 | 8564 ft | 300 kts | 300° |
| 2026-05-07 15:27 | 53.28432 | -1.47104 | 8143 ft | 298 kts | 300° |
| 2026-05-07 15:27 | 53.29554 | -1.50008 | 7719 ft | 297 kts | 300° |
| 2026-05-07 15:27 | 53.30670 | -1.52900 | 7326 ft | 295 kts | 300° |
| 2026-05-07 15:27 | 53.31775 | -1.55768 | 6444 ft | 299 kts | 300° |
| 2026-05-07 15:28 | 53.32865 | -1.58591 | 6132 ft | 276 kts | 300° |
| 2026-05-07 15:28 | 53.33895 | -1.61256 | 6010 ft | 272 kts | 299° |
| 2026-05-07 15:28 | 53.34919 | -1.63915 | 5874 ft | 272 kts | 299° |
| 2026-05-07 15:28 | 53.35939 | -1.66572 | 5740 ft | 271 kts | 299° |
| 2026-05-07 15:29 | 53.36962 | -1.69233 | 5616 ft | 271 kts | 300° |
| 2026-05-07 15:29 | 53.37980 | -1.71885 | 5479 ft | 270 kts | 300° |
| 2026-05-07 15:29 | 53.38994 | -1.74534 | 5359 ft | 269 kts | 300° |
| 2026-05-07 15:29 | 53.40003 | -1.77178 | 5231 ft | 269 kts | 300° |
| 2026-05-07 15:30 | 53.40997 | -1.79777 | 5095 ft | 268 kts | 299° |
| 2026-05-07 15:30 | 53.42002 | -1.82412 | 4974 ft | 268 kts | 300° |
| 2026-05-07 15:30 | 53.43004 | -1.85042 | 4832 ft | 268 kts | 299° |
| 2026-05-07 15:30 | 53.44004 | -1.87676 | 4712 ft | 268 kts | 300° |
| 2026-05-07 15:31 | 53.45007 | -1.90316 | 4574 ft | 268 kts | 300° |
| 2026-05-07 15:31 | 53.46007 | -1.92944 | 4441 ft | 265 kts | 300° |
| 2026-05-07 15:31 | 53.46997 | -1.95498 | 4307 ft | 258 kts | 304° |
| 2026-05-07 15:31 | 53.48256 | -1.97575 | 4178 ft | 252 kts | 323° |
| 2026-05-07 15:32 | 53.49806 | -1.98863 | 4041 ft | 246 kts | 342° |
| 2026-05-07 15:32 | 53.51462 | -1.99295 | 3948 ft | 246 kts | 359° |
| 2026-05-07 15:32 | 53.53168 | -1.99032 | 3818 ft | 247 kts | 7° |
| 2026-05-07 15:32 | 53.54873 | -1.98694 | 3677 ft | 245 kts | 9° |
| 2026-05-07 15:33 | 53.56443 | -1.97710 | 3568 ft | 243 kts | 39° |
| 2026-05-07 15:33 | 53.57407 | -1.95499 | 3518 ft | 234 kts | 75° |
| 2026-05-07 15:33 | 53.57466 | -1.92844 | 3527 ft | 227 kts | 109° |
| 2026-05-07 15:33 | 53.56679 | -1.90638 | 3522 ft | 217 kts | 141° |
| 2026-05-07 15:34 | 53.55405 | -1.89544 | 3521 ft | 203 kts | 170° |
| 2026-05-07 15:34 | 53.54044 | -1.89670 | 3523 ft | 200 kts | 198° |
| 2026-05-07 15:34 | 53.52894 | -1.90936 | 3550 ft | 198 kts | 225° |
| 2026-05-07 15:34 | 53.52031 | -1.92727 | 3533 ft | 196 kts | 229° |
| 2026-05-07 15:35 | 53.51187 | -1.94517 | 3528 ft | 196 kts | 228° |
| 2026-05-07 15:35 | 53.50342 | -1.96296 | 3531 ft | 193 kts | 228° |
| 2026-05-07 15:35 | 53.49551 | -1.97959 | 3516 ft | 171 kts | 228° |
| 2026-05-07 15:35 | 53.48829 | -1.99471 | 3546 ft | 163 kts | 228° |
| 2026-05-07 15:36 | 53.48142 | -2.00907 | 3531 ft | 160 kts | 228° |
| 2026-05-07 15:36 | 53.47499 | -2.02242 | 3518 ft | 157 kts | 224° |
| 2026-05-07 15:36 | 53.46611 | -2.03231 | 3512 ft | 156 kts | 210° |
| 2026-05-07 15:36 | 53.45949 | -2.04706 | 3413 ft | 163 kts | 249° |
| 2026-05-07 15:37 | 53.45556 | -2.06475 | 3235 ft | 159 kts | 227° |
| 2026-05-07 15:37 | 53.44801 | -2.07795 | 3036 ft | 157 kts | 227° |
| 2026-05-07 15:37 | 53.44129 | -2.09243 | 2838 ft | 157 kts | 227° |
| 2026-05-07 15:37 | 53.43457 | -2.10673 | 2601 ft | 156 kts | 227° |
| 2026-05-07 15:38 | 53.42783 | -2.12091 | 2410 ft | 155 kts | 227° |
| 2026-05-07 15:38 | 53.42122 | -2.13472 | 2196 ft | 153 kts | 228° |
| 2026-05-07 15:38 | 53.41458 | -2.14858 | 1989 ft | 152 kts | 227° |
| 2026-05-07 15:38 | 53.40793 | -2.16242 | 1779 ft | 153 kts | 227° |
| 2026-05-07 15:39 | 53.40143 | -2.17597 | 1567 ft | 144 kts | 226° |
| 2026-05-07 15:39 | 53.39520 | -2.18892 | 1378 ft | 141 kts | 226° |
| 2026-05-07 15:39 | 53.38910 | -2.20159 | 1181 ft | 139 kts | 227° |
| 2026-05-07 15:39 | 53.38302 | -2.21421 | 992 ft | 139 kts | 226° |
| 2026-05-07 15:40 | 53.37692 | -2.22687 | 792 ft | 142 kts | 229° |
| 2026-05-07 15:40 | 53.37083 | -2.23951 | 623 ft | 141 kts | 230° |
| 2026-05-07 15:40 | 53.36470 | -2.25246 | 406 ft | 141 kts | 230° |
| 2026-05-07 15:40 | 53.35848 | -2.26516 | 277 ft | 133 kts | 229° |
| 2026-05-07 15:41 | 53.35406 | -2.27412 | 244 ft | 67 kts | 232° |
| 2026-05-07 15:41 | 53.35269 | -2.27807 | 237 ft | 34 kts | 252° |
| 2026-05-07 15:41 | 53.35245 | -2.28005 | 233 ft | 11 kts | 259° |
| 2026-05-07 15:41 | 53.35237 | -2.28084 | 231 ft | 0 kts | 261° |
| 2026-05-07 15:42 | 53.35236 | -2.28096 | 231 ft | 2 kts | 261° |
| 2026-05-07 15:42 | 53.35235 | -2.28108 | 233 ft | 1 kts | 261° |
| 2026-05-07 15:42 | 53.35235 | -2.28110 | 232 ft | 0 kts | 261° |
| 2026-05-07 15:43 | 53.35233 | -2.28128 | 231 ft | 5 kts | 260° |
| 2026-05-07 15:43 | 53.35245 | -2.28216 | 231 ft | 7 kts | 311° |
| 2026-05-07 15:44 | 53.35280 | -2.28200 | 232 ft | 6 kts | 37° |
| 2026-05-07 15:44 | 53.35305 | -2.28164 | 234 ft | 4 kts | 43° |
| 2026-05-07 15:44 | 53.35320 | -2.28140 | 235 ft | 4 kts | 44° |
| 2026-05-07 15:44 | 53.35349 | -2.28095 | 239 ft | 8 kts | 44° |
| 2026-05-07 15:45 | 53.35400 | -2.28012 | 237 ft | 13 kts | 44° |
| 2026-05-07 15:45 | 53.35475 | -2.27890 | 240 ft | 17 kts | 44° |
| 2026-05-07 15:45 | 53.35574 | -2.27731 | 240 ft | 22 kts | 43° |
| 2026-05-07 15:45 | 53.35677 | -2.27553 | 248 ft | 17 kts | 51° |
| 2026-05-07 15:46 | 53.35768 | -2.27305 | 255 ft | 14 kts | 103° |
| 2026-05-07 15:46 | 53.35753 | -2.27199 | 255 ft | 10 kts | 77° |
| 2026-05-07 15:46 | 53.35803 | -2.27073 | 255 ft | 16 kts | 55° |
| 2026-05-07 15:47 | 53.35868 | -2.26907 | 256 ft | 16 kts | 50° |
| 2026-05-07 15:47 | 53.35927 | -2.26774 | 256 ft | 11 kts | 57° |
| 2026-05-07 15:47 | 53.36003 | -2.26742 | 255 ft | 12 kts | 8° |
| 2026-05-07 15:47 | 53.36024 | -2.26731 | 255 ft | 0 kts | 16° |
| 2026-05-07 15:48 | 53.36030 | -2.26730 | 255 ft | 3 kts | 7° |
| 2026-05-07 15:48 | 53.36056 | -2.26747 | 255 ft | 6 kts | 328° |
| 2026-05-07 15:48 | 53.36079 | -2.26780 | 255 ft | 5 kts | 317° |
| 2026-05-07 15:48 | 53.36086 | -2.26792 | 255 ft | 1 kts | 315° |
| 2026-05-07 15:49 | 53.36089 | -2.26796 | 255 ft | 0 kts | 315° |